sensor_id;sensor_type;location;lat;lon;timestamp;pressure;altitude;pressure_sealevel;temperature;humidity
73941;BME280;62294;48.554;10.202;2023-07-24T00:01:35;93102.91;;;16.13;100.00
73941;BME280;62294;48.554;10.202;2023-07-24T00:04:01;93073.47;;;16.04;100.00
73941;BME280;62294;48.554;10.202;2023-07-24T00:06:28;93041.56;;;15.91;100.00
73941;BME280;62294;48.554;10.202;2023-07-24T00:08:55;93009.97;;;16.05;100.00
73941;BME280;62294;48.554;10.202;2023-07-24T00:11:21;92980.69;;;16.00;100.00
73941;BME280;62294;48.554;10.202;2023-07-24T00:13:48;92955.81;;;15.99;100.00
73941;BME280;62294;48.554;10.202;2023-07-24T00:16:15;92945.13;;;15.91;100.00
73941;BME280;62294;48.554;10.202;2023-07-24T00:18:41;92923.44;;;16.04;100.00
73941;BME280;62294;48.554;10.202;2023-07-24T00:21:08;92897.06;;;16.15;100.00
73941;BME280;62294;48.554;10.202;2023-07-24T00:23:35;92857.50;;;16.45;100.00
73941;BME280;62294;48.554;10.202;2023-07-24T00:26:01;92858.34;;;16.69;100.00
73941;BME280;62294;48.554;10.202;2023-07-24T00:28:28;92912.56;;;16.42;100.00
73941;BME280;62294;48.554;10.202;2023-07-24T00:30:55;92915.19;;;16.30;100.00
73941;BME280;62294;48.554;10.202;2023-07-24T00:33:22;92916.81;;;16.22;100.00
73941;BME280;62294;48.554;10.202;2023-07-24T00:35:48;92917.66;;;16.35;100.00
73941;BME280;62294;48.554;10.202;2023-07-24T00:38:15;92934.38;;;16.53;100.00
73941;BME280;62294;48.554;10.202;2023-07-24T00:40:42;92909.53;;;16.76;100.00
73941;BME280;62294;48.554;10.202;2023-07-24T00:43:08;92864.72;;;16.65;100.00
73941;BME280;62294;48.554;10.202;2023-07-24T00:45:35;92798.00;;;16.51;100.00
73941;BME280;62294;48.554;10.202;2023-07-24T00:48:02;92755.38;;;16.13;100.00
73941;BME280;62294;48.554;10.202;2023-07-24T00:50:29;92682.34;;;15.80;100.00
73941;BME280;62294;48.554;10.202;2023-07-24T00:52:57;92601.22;;;15.80;100.00
73941;BME280;62294;48.554;10.202;2023-07-24T00:55:24;92543.22;;;15.72;100.00
73941;BME280;62294;48.554;10.202;2023-07-24T00:57:51;92478.75;;;15.65;100.00
73941;BME280;62294;48.554;10.202;2023-07-24T01:00:18;92449.97;;;15.49;100.00
73941;BME280;62294;48.554;10.202;2023-07-24T01:02:45;92398.00;;;15.38;100.00
73941;BME280;62294;48.554;10.202;2023-07-24T01:05:13;92365.69;;;15.31;100.00
73941;BME280;62294;48.554;10.202;2023-07-24T01:07:41;92357.78;;;15.23;100.00
73941;BME280;62294;48.554;10.202;2023-07-24T01:10:07;92361.47;;;15.18;100.00
73941;BME280;62294;48.554;10.202;2023-07-24T01:12:39;92356.59;;;14.96;100.00
73941;BME280;62294;48.554;10.202;2023-07-24T01:15:19;92386.44;;;14.86;100.00
73941;BME280;62294;48.554;10.202;2023-07-24T01:17:55;92468.06;;;14.83;100.00
73941;BME280;62294;48.554;10.202;2023-07-24T01:20:26;92665.16;;;14.83;100.00
73941;BME280;62294;48.554;10.202;2023-07-24T01:26:01;93840.22;;;14.72;100.00
73941;BME280;62294;48.554;10.202;2023-07-24T01:28:30;94059.50;;;14.72;100.00
73941;BME280;62294;48.554;10.202;2023-07-24T01:30:57;93699.78;;;14.88;100.00
73941;BME280;62294;48.554;10.202;2023-07-24T01:33:24;93519.47;;;14.80;100.00
73941;BME280;62294;48.554;10.202;2023-07-24T01:35:54;93440.78;;;14.73;100.00
73941;BME280;62294;48.554;10.202;2023-07-24T01:38:25;93373.00;;;14.69;100.00
73941;BME280;62294;48.554;10.202;2023-07-24T01:40:53;93337.31;;;14.34;100.00
73941;BME280;62294;48.554;10.202;2023-07-24T01:43:20;93278.16;;;14.27;100.00
73941;BME280;62294;48.554;10.202;2023-07-24T01:45:46;93210.47;;;14.32;100.00
73941;BME280;62294;48.554;10.202;2023-07-24T01:48:13;93093.56;;;14.54;100.00
73941;BME280;62294;48.554;10.202;2023-07-24T01:50:40;93039.66;;;14.44;100.00
73941;BME280;62294;48.554;10.202;2023-07-24T01:53:06;92989.81;;;14.48;100.00
73941;BME280;62294;48.554;10.202;2023-07-24T01:55:33;92991.72;;;14.39;100.00
73941;BME280;62294;48.554;10.202;2023-07-24T01:57:59;92964.66;;;14.49;100.00
73941;BME280;62294;48.554;10.202;2023-07-24T02:00:25;92931.31;;;14.55;100.00
73941;BME280;62294;48.554;10.202;2023-07-24T02:02:53;92913.38;;;14.64;100.00
73941;BME280;62294;48.554;10.202;2023-07-24T02:05:19;92918.84;;;14.76;100.00
73941;BME280;62294;48.554;10.202;2023-07-24T02:07:46;92912.97;;;14.91;100.00
73941;BME280;62294;48.554;10.202;2023-07-24T02:10:12;92915.13;;;14.98;100.00
73941;BME280;62294;48.554;10.202;2023-07-24T02:12:39;92915.69;;;15.12;100.00
73941;BME280;62294;48.554;10.202;2023-07-24T02:15:06;92925.72;;;15.23;100.00
73941;BME280;62294;48.554;10.202;2023-07-24T02:17:33;92964.09;;;15.27;100.00
73941;BME280;62294;48.554;10.202;2023-07-24T02:19:59;92983.22;;;15.00;100.00
73941;BME280;62294;48.554;10.202;2023-07-24T02:22:26;92950.56;;;15.24;100.00
73941;BME280;62294;48.554;10.202;2023-07-24T02:24:52;92908.56;;;15.53;100.00
73941;BME280;62294;48.554;10.202;2023-07-24T02:27:27;92932.13;;;15.60;100.00
73941;BME280;62294;48.554;10.202;2023-07-24T02:29:54;93092.41;;;15.07;100.00
73941;BME280;62294;48.554;10.202;2023-07-24T02:32:21;92955.88;;;15.32;100.00
73941;BME280;62294;48.554;10.202;2023-07-24T02:34:51;92913.91;;;15.53;100.00
73941;BME280;62294;48.554;10.202;2023-07-24T02:37:19;92934.47;;;15.61;100.00
73941;BME280;62294;48.554;10.202;2023-07-24T02:39:45;92921.75;;;15.79;100.00
73941;BME280;62294;48.554;10.202;2023-07-24T02:42:12;92914.56;;;15.92;100.00
73941;BME280;62294;48.554;10.202;2023-07-24T02:44:39;92924.13;;;15.81;100.00
73941;BME280;62294;48.554;10.202;2023-07-24T02:47:05;92943.38;;;15.74;100.00
73941;BME280;62294;48.554;10.202;2023-07-24T02:49:32;92944.47;;;15.73;100.00
73941;BME280;62294;48.554;10.202;2023-07-24T02:51:59;92939.97;;;15.65;100.00
73941;BME280;62294;48.554;10.202;2023-07-24T02:54:26;92976.81;;;15.30;100.00
73941;BME280;62294;48.554;10.202;2023-07-24T02:56:53;92934.66;;;15.27;100.00
73941;BME280;62294;48.554;10.202;2023-07-24T02:59:20;92920.34;;;15.23;100.00
73941;BME280;62294;48.554;10.202;2023-07-24T03:01:46;92911.41;;;15.19;100.00
73941;BME280;62294;48.554;10.202;2023-07-24T03:04:13;92921.50;;;15.14;100.00
73941;BME280;62294;48.554;10.202;2023-07-24T03:06:39;92901.28;;;15.25;100.00
73941;BME280;62294;48.554;10.202;2023-07-24T03:09:07;92885.41;;;15.28;100.00
73941;BME280;62294;48.554;10.202;2023-07-24T03:11:33;92923.97;;;14.89;100.00
73941;BME280;62294;48.554;10.202;2023-07-24T03:13:59;92923.06;;;14.77;100.00
73941;BME280;62294;48.554;10.202;2023-07-24T03:16:26;92910.19;;;14.70;100.00
73941;BME280;62294;48.554;10.202;2023-07-24T03:18:53;92896.03;;;14.70;100.00
73941;BME280;62294;48.554;10.202;2023-07-24T03:21:20;92880.50;;;14.63;100.00
73941;BME280;62294;48.554;10.202;2023-07-24T03:23:47;92854.91;;;14.54;100.00
73941;BME280;62294;48.554;10.202;2023-07-24T03:26:13;92836.13;;;14.42;100.00
73941;BME280;62294;48.554;10.202;2023-07-24T03:28:40;92814.00;;;14.33;100.00
73941;BME280;62294;48.554;10.202;2023-07-24T03:31:07;92780.31;;;14.40;100.00
73941;BME280;62294;48.554;10.202;2023-07-24T03:33:33;92767.78;;;14.32;100.00
73941;BME280;62294;48.554;10.202;2023-07-24T03:36:00;92748.75;;;14.34;100.00
73941;BME280;62294;48.554;10.202;2023-07-24T03:38:27;92728.31;;;14.38;100.00
73941;BME280;62294;48.554;10.202;2023-07-24T03:40:53;92724.34;;;14.44;100.00
73941;BME280;62294;48.554;10.202;2023-07-24T03:43:20;92712.94;;;14.35;100.00
73941;BME280;62294;48.554;10.202;2023-07-24T03:45:47;92699.53;;;14.43;100.00
73941;BME280;62294;48.554;10.202;2023-07-24T03:48:13;92724.91;;;14.20;100.00
73941;BME280;62294;48.554;10.202;2023-07-24T03:50:40;92742.59;;;13.95;100.00
73941;BME280;62294;48.554;10.202;2023-07-24T03:53:07;92710.28;;;13.88;100.00
73941;BME280;62294;48.554;10.202;2023-07-24T03:55:34;92683.22;;;13.98;100.00
73941;BME280;62294;48.554;10.202;2023-07-24T03:58:00;92644.84;;;14.11;100.00
73941;BME280;62294;48.554;10.202;2023-07-24T04:00:27;92620.28;;;14.18;100.00
73941;BME280;62294;48.554;10.202;2023-07-24T04:02:53;92622.69;;;14.11;100.00
73941;BME280;62294;48.554;10.202;2023-07-24T04:05:20;92633.28;;;13.99;100.00
73941;BME280;62294;48.554;10.202;2023-07-24T04:07:47;92626.97;;;14.03;100.00
73941;BME280;62294;48.554;10.202;2023-07-24T04:10:13;92632.50;;;13.98;100.00
73941;BME280;62294;48.554;10.202;2023-07-24T04:12:40;92620.34;;;14.09;100.00
73941;BME280;62294;48.554;10.202;2023-07-24T04:15:06;92617.72;;;14.01;100.00
73941;BME280;62294;48.554;10.202;2023-07-24T04:17:33;92614.91;;;13.97;100.00
73941;BME280;62294;48.554;10.202;2023-07-24T04:20:02;92585.44;;;14.14;100.00
73941;BME280;62294;48.554;10.202;2023-07-24T04:22:29;92578.53;;;14.13;100.00
73941;BME280;62294;48.554;10.202;2023-07-24T04:24:55;92561.66;;;14.21;100.00
73941;BME280;62294;48.554;10.202;2023-07-24T04:27:22;92572.41;;;14.13;100.00
73941;BME280;62294;48.554;10.202;2023-07-24T04:29:48;92588.75;;;14.11;100.00
73941;BME280;62294;48.554;10.202;2023-07-24T04:32:15;92586.09;;;14.11;100.00
73941;BME280;62294;48.554;10.202;2023-07-24T04:34:42;92579.63;;;14.12;100.00
73941;BME280;62294;48.554;10.202;2023-07-24T04:37:08;92563.22;;;14.22;100.00
73941;BME280;62294;48.554;10.202;2023-07-24T04:39:38;92543.47;;;14.44;100.00
73941;BME280;62294;48.554;10.202;2023-07-24T04:42:05;92541.28;;;14.38;100.00
73941;BME280;62294;48.554;10.202;2023-07-24T04:44:31;92530.13;;;14.56;100.00
73941;BME280;62294;48.554;10.202;2023-07-24T04:47:01;92499.31;;;14.91;100.00
73941;BME280;62294;48.554;10.202;2023-07-24T04:49:29;92476.69;;;15.13;100.00
73941;BME280;62294;48.554;10.202;2023-07-24T04:51:56;92473.69;;;15.27;100.00
73941;BME280;62294;48.554;10.202;2023-07-24T04:54:24;92464.28;;;15.53;100.00
73941;BME280;62294;48.554;10.202;2023-07-24T04:56:50;92488.91;;;15.47;100.00
73941;BME280;62294;48.554;10.202;2023-07-24T04:59:17;92488.78;;;15.68;100.00
73941;BME280;62294;48.554;10.202;2023-07-24T05:01:44;92547.78;;;15.59;100.00
73941;BME280;62294;48.554;10.202;2023-07-24T05:04:10;92538.41;;;16.01;100.00
73941;BME280;62294;48.554;10.202;2023-07-24T05:06:36;92542.94;;;16.25;100.00
73941;BME280;62294;48.554;10.202;2023-07-24T05:09:05;92586.22;;;16.39;100.00
73941;BME280;62294;48.554;10.202;2023-07-24T05:11:31;92632.13;;;16.38;100.00
73941;BME280;62294;48.554;10.202;2023-07-24T05:13:58;92655.72;;;16.56;100.00
73941;BME280;62294;48.554;10.202;2023-07-24T05:16:24;92679.25;;;16.63;100.00
73941;BME280;62294;48.554;10.202;2023-07-24T05:18:51;92731.66;;;16.60;100.00
73941;BME280;62294;48.554;10.202;2023-07-24T05:21:17;92742.78;;;16.86;100.00
73941;BME280;62294;48.554;10.202;2023-07-24T05:23:44;92782.69;;;17.00;100.00
73941;BME280;62294;48.554;10.202;2023-07-24T05:26:10;92829.66;;;17.06;100.00
73941;BME280;62294;48.554;10.202;2023-07-24T05:28:37;92896.16;;;17.00;100.00
73941;BME280;62294;48.554;10.202;2023-07-24T05:31:04;92933.50;;;17.06;100.00
73941;BME280;62294;48.554;10.202;2023-07-24T05:33:31;92963.25;;;17.13;100.00
73941;BME280;62294;48.554;10.202;2023-07-24T05:35:59;92985.84;;;17.24;100.00
73941;BME280;62294;48.554;10.202;2023-07-24T05:38:26;93044.78;;;17.20;100.00
73941;BME280;62294;48.554;10.202;2023-07-24T05:40:59;93049.06;;;17.33;100.00
73941;BME280;62294;48.554;10.202;2023-07-24T05:43:27;93069.94;;;17.16;100.00
73941;BME280;62294;48.554;10.202;2023-07-24T05:45:55;93085.78;;;17.09;100.00
73941;BME280;62294;48.554;10.202;2023-07-24T05:48:23;93102.94;;;16.95;100.00
73941;BME280;62294;48.554;10.202;2023-07-24T05:50:50;93081.31;;;17.13;100.00
73941;BME280;62294;48.554;10.202;2023-07-24T05:53:17;93065.50;;;17.44;100.00
73941;BME280;62294;48.554;10.202;2023-07-24T05:55:43;92989.16;;;18.29;100.00
73941;BME280;62294;48.554;10.202;2023-07-24T05:58:10;92997.59;;;19.11;100.00
73941;BME280;62294;48.554;10.202;2023-07-24T06:00:38;93107.34;;;19.89;100.00
73941;BME280;62294;48.554;10.202;2023-07-24T06:03:04;93452.75;;;19.06;100.00
73941;BME280;62294;48.554;10.202;2023-07-24T06:05:34;93540.91;;;18.35;100.00
73941;BME280;62294;48.554;10.202;2023-07-24T06:08:01;93480.31;;;18.37;100.00
73941;BME280;62294;48.554;10.202;2023-07-24T06:10:27;93432.72;;;18.17;100.00
73941;BME280;62294;48.554;10.202;2023-07-24T06:12:53;93339.00;;;17.95;100.00
73941;BME280;62294;48.554;10.202;2023-07-24T06:15:20;93233.31;;;18.03;100.00
73941;BME280;62294;48.554;10.202;2023-07-24T06:17:47;93148.22;;;17.95;100.00
73941;BME280;62294;48.554;10.202;2023-07-24T06:20:16;93103.19;;;17.68;100.00
73941;BME280;62294;48.554;10.202;2023-07-24T06:22:43;93001.09;;;17.92;100.00
73941;BME280;62294;48.554;10.202;2023-07-24T06:25:10;93000.22;;;17.64;100.00
73941;BME280;62294;48.554;10.202;2023-07-24T06:27:36;92946.38;;;17.36;100.00
73941;BME280;62294;48.554;10.202;2023-07-24T06:30:04;92903.56;;;17.16;100.00
73941;BME280;62294;48.554;10.202;2023-07-24T06:32:41;92846.31;;;16.99;100.00
73941;BME280;62294;48.554;10.202;2023-07-24T06:35:08;92825.94;;;16.86;100.00
73941;BME280;62294;48.554;10.202;2023-07-24T06:37:34;92787.41;;;16.79;100.00
73941;BME280;62294;48.554;10.202;2023-07-24T06:40:01;92719.78;;;16.97;100.00
73941;BME280;62294;48.554;10.202;2023-07-24T06:42:28;92707.69;;;16.91;100.00
73941;BME280;62294;48.554;10.202;2023-07-24T06:44:54;92664.44;;;16.93;100.00
73941;BME280;62294;48.554;10.202;2023-07-24T06:47:21;92656.97;;;16.86;100.00
73941;BME280;62294;48.554;10.202;2023-07-24T06:49:48;92575.16;;;16.92;100.00
73941;BME280;62294;48.554;10.202;2023-07-24T06:52:14;92553.63;;;17.04;100.00
73941;BME280;62294;48.554;10.202;2023-07-24T06:54:40;92535.22;;;17.19;100.00
73941;BME280;62294;48.554;10.202;2023-07-24T06:57:07;92523.13;;;17.25;100.00
73941;BME280;62294;48.554;10.202;2023-07-24T06:59:34;92536.00;;;17.35;100.00
73941;BME280;62294;48.554;10.202;2023-07-24T07:02:00;92530.81;;;17.42;100.00
73941;BME280;62294;48.554;10.202;2023-07-24T07:04:27;92535.09;;;17.43;100.00
73941;BME280;62294;48.554;10.202;2023-07-24T07:06:54;92548.41;;;17.39;100.00
73941;BME280;62294;48.554;10.202;2023-07-24T07:09:20;92541.75;;;17.49;100.00
73941;BME280;62294;48.554;10.202;2023-07-24T07:11:47;92534.25;;;17.54;100.00
73941;BME280;62294;48.554;10.202;2023-07-24T07:14:14;92534.00;;;17.75;100.00
73941;BME280;62294;48.554;10.202;2023-07-24T07:16:40;92577.22;;;17.54;100.00
73941;BME280;62294;48.554;10.202;2023-07-24T07:19:07;92598.34;;;17.56;100.00
73941;BME280;62294;48.554;10.202;2023-07-24T07:21:36;92635.28;;;17.47;100.00
73941;BME280;62294;48.554;10.202;2023-07-24T07:24:03;92631.00;;;17.58;100.00
73941;BME280;62294;48.554;10.202;2023-07-24T07:26:29;92626.66;;;17.69;100.00
73941;BME280;62294;48.554;10.202;2023-07-24T07:28:57;92631.34;;;18.03;100.00
73941;BME280;62294;48.554;10.202;2023-07-24T07:31:23;92671.34;;;18.05;100.00
73941;BME280;62294;48.554;10.202;2023-07-24T07:33:50;92671.75;;;18.22;100.00
73941;BME280;62294;48.554;10.202;2023-07-24T07:36:16;92715.28;;;18.28;100.00
73941;BME280;62294;48.554;10.202;2023-07-24T07:38:44;92743.88;;;18.48;100.00
73941;BME280;62294;48.554;10.202;2023-07-24T07:41:10;92810.41;;;18.23;100.00
73941;BME280;62294;48.554;10.202;2023-07-24T07:43:37;92848.31;;;18.18;100.00
73941;BME280;62294;48.554;10.202;2023-07-24T07:46:04;92890.28;;;18.23;100.00
73941;BME280;62294;48.554;10.202;2023-07-24T07:48:31;92903.84;;;18.42;100.00
73941;BME280;62294;48.554;10.202;2023-07-24T07:50:58;92938.63;;;18.63;100.00
73941;BME280;62294;48.554;10.202;2023-07-24T07:53:25;92984.13;;;18.68;100.00
73941;BME280;62294;48.554;10.202;2023-07-24T07:55:56;93039.25;;;18.74;100.00
73941;BME280;62294;48.554;10.202;2023-07-24T07:58:29;93090.88;;;18.91;100.00
73941;BME280;62294;48.554;10.202;2023-07-24T08:00:55;93133.50;;;19.17;100.00
73941;BME280;62294;48.554;10.202;2023-07-24T08:03:22;93204.94;;;19.27;100.00
73941;BME280;62294;48.554;10.202;2023-07-24T08:05:49;93275.06;;;19.42;100.00
73941;BME280;62294;48.554;10.202;2023-07-24T08:08:16;93346.44;;;19.48;100.00
73941;BME280;62294;48.554;10.202;2023-07-24T08:10:42;93379.88;;;19.99;100.00
73941;BME280;62294;48.554;10.202;2023-07-24T08:13:08;93547.50;;;19.77;100.00
73941;BME280;62294;48.554;10.202;2023-07-24T08:15:36;93571.88;;;19.93;100.00
73941;BME280;62294;48.554;10.202;2023-07-24T08:18:04;93674.75;;;19.83;100.00
73941;BME280;62294;48.554;10.202;2023-07-24T08:20:32;93702.69;;;19.78;100.00
73941;BME280;62294;48.554;10.202;2023-07-24T08:23:01;93779.16;;;19.73;100.00
73941;BME280;62294;48.554;10.202;2023-07-24T08:25:27;93837.19;;;19.92;100.00
73941;BME280;62294;48.554;10.202;2023-07-24T08:27:54;93883.47;;;19.73;100.00
73941;BME280;62294;48.554;10.202;2023-07-24T08:30:26;93868.41;;;20.34;100.00
73941;BME280;62294;48.554;10.202;2023-07-24T08:32:52;93960.72;;;20.39;100.00
73941;BME280;62294;48.554;10.202;2023-07-24T08:35:20;94021.72;;;20.73;100.00
73941;BME280;62294;48.554;10.202;2023-07-24T08:37:46;94072.22;;;21.71;100.00
73941;BME280;62294;48.554;10.202;2023-07-24T08:40:13;94190.44;;;22.39;100.00
73941;BME280;62294;48.554;10.202;2023-07-24T08:42:42;94302.88;;;22.04;100.00
73941;BME280;62294;48.554;10.202;2023-07-24T08:45:11;94370.09;;;21.73;100.00
73941;BME280;62294;48.554;10.202;2023-07-24T08:47:42;94355.59;;;22.72;100.00
73941;BME280;62294;48.554;10.202;2023-07-24T08:50:11;94428.28;;;22.08;100.00
73941;BME280;62294;48.554;10.202;2023-07-24T08:52:39;94435.94;;;22.47;100.00
73941;BME280;62294;48.554;10.202;2023-07-24T08:55:06;94482.34;;;21.50;100.00
73941;BME280;62294;48.554;10.202;2023-07-24T08:57:32;94482.44;;;22.20;100.00
73941;BME280;62294;48.554;10.202;2023-07-24T08:59:59;94502.16;;;22.00;100.00
73941;BME280;62294;48.554;10.202;2023-07-24T09:02:34;94492.91;;;22.30;100.00
73941;BME280;62294;48.554;10.202;2023-07-24T09:05:02;94498.69;;;22.41;100.00
73941;BME280;62294;48.554;10.202;2023-07-24T09:07:32;94418.88;;;22.68;100.00
73941;BME280;62294;48.554;10.202;2023-07-24T09:09:59;94278.72;;;23.25;100.00
73941;BME280;62294;48.554;10.202;2023-07-24T09:12:26;94143.84;;;23.62;100.00
73941;BME280;62294;48.554;10.202;2023-07-24T09:15:05;94001.16;;;23.57;100.00
73941;BME280;62294;48.554;10.202;2023-07-24T09:17:33;93754.31;;;24.08;100.00
73941;BME280;62294;48.554;10.202;2023-07-24T09:20:00;93750.75;;;24.68;100.00
73941;BME280;62294;48.554;10.202;2023-07-24T09:22:28;93619.56;;;24.19;100.00
73941;BME280;62294;48.554;10.202;2023-07-24T09:24:56;93660.81;;;23.44;100.00
73941;BME280;62294;48.554;10.202;2023-07-24T09:27:27;93732.78;;;23.26;100.00
73941;BME280;62294;48.554;10.202;2023-07-24T09:29:57;93746.38;;;23.10;100.00
73941;BME280;62294;48.554;10.202;2023-07-24T09:32:25;93797.97;;;22.67;100.00
73941;BME280;62294;48.554;10.202;2023-07-24T09:34:52;93914.38;;;22.39;100.00
73941;BME280;62294;48.554;10.202;2023-07-24T09:37:33;94206.22;;;22.25;100.00
73941;BME280;62294;48.554;10.202;2023-07-24T09:40:04;94249.13;;;22.03;100.00
73941;BME280;62294;48.554;10.202;2023-07-24T09:42:31;94365.59;;;22.06;100.00
73941;BME280;62294;48.554;10.202;2023-07-24T09:44:58;94460.19;;;21.65;100.00
73941;BME280;62294;48.554;10.202;2023-07-24T09:47:25;94568.09;;;21.49;100.00
73941;BME280;62294;48.554;10.202;2023-07-24T09:50:12;94725.50;;;21.12;100.00
73941;BME280;62294;48.554;10.202;2023-07-24T09:52:40;94574.69;;;20.71;100.00
73941;BME280;62294;48.554;10.202;2023-07-24T09:55:17;94347.22;;;20.74;100.00
73941;BME280;62294;48.554;10.202;2023-07-24T09:57:46;94243.88;;;20.36;100.00
73941;BME280;62294;48.554;10.202;2023-07-24T10:00:13;94175.59;;;20.44;100.00
73941;BME280;62294;48.554;10.202;2023-07-24T10:02:40;94076.88;;;20.84;100.00
73941;BME280;62294;48.554;10.202;2023-07-24T10:05:08;94050.88;;;20.80;100.00
73941;BME280;62294;48.554;10.202;2023-07-24T10:07:34;94072.09;;;20.69;100.00
73941;BME280;62294;48.554;10.202;2023-07-24T10:10:01;94114.94;;;20.71;100.00
73941;BME280;62294;48.554;10.202;2023-07-24T10:12:28;94152.13;;;20.36;100.00
73941;BME280;62294;48.554;10.202;2023-07-24T10:14:56;94059.09;;;19.83;100.00
73941;BME280;62294;48.554;10.202;2023-07-24T10:17:34;93913.66;;;20.08;100.00
73941;BME280;62294;48.554;10.202;2023-07-24T10:20:07;93798.91;;;20.31;100.00
73941;BME280;62294;48.554;10.202;2023-07-24T10:22:36;93695.97;;;20.89;100.00
73941;BME280;62294;48.554;10.202;2023-07-24T10:25:08;93705.75;;;21.06;100.00
73941;BME280;62294;48.554;10.202;2023-07-24T10:27:36;93747.47;;;21.20;100.00
73941;BME280;62294;48.554;10.202;2023-07-24T10:30:05;93783.38;;;21.33;100.00
73941;BME280;62294;48.554;10.202;2023-07-24T10:32:48;93822.09;;;21.25;100.00
73941;BME280;62294;48.554;10.202;2023-07-24T10:35:20;93844.94;;;21.15;100.00
73941;BME280;62294;48.554;10.202;2023-07-24T10:37:59;93834.00;;;21.36;100.00
73941;BME280;62294;48.554;10.202;2023-07-24T10:40:26;93883.66;;;21.56;100.00
73941;BME280;62294;48.554;10.202;2023-07-24T10:43:06;93912.38;;;21.12;100.00
73941;BME280;62294;48.554;10.202;2023-07-24T10:45:46;93854.81;;;21.48;100.00
73941;BME280;62294;48.554;10.202;2023-07-24T10:48:13;93874.50;;;21.97;100.00
73941;BME280;62294;48.554;10.202;2023-07-24T10:50:42;93918.91;;;21.71;100.00
73941;BME280;62294;48.554;10.202;2023-07-24T10:53:10;93901.53;;;21.97;100.00
73941;BME280;62294;48.554;10.202;2023-07-24T10:55:37;93949.66;;;22.03;100.00
73941;BME280;62294;48.554;10.202;2023-07-24T10:58:05;93999.47;;;21.90;100.00
73941;BME280;62294;48.554;10.202;2023-07-24T11:00:32;94073.56;;;21.65;100.00
73941;BME280;62294;48.554;10.202;2023-07-24T11:02:58;94201.25;;;21.29;100.00
73941;BME280;62294;48.554;10.202;2023-07-24T11:05:26;94218.75;;;21.02;100.00
73941;BME280;62294;48.554;10.202;2023-07-24T11:07:53;94248.41;;;20.82;100.00
73941;BME280;62294;48.554;10.202;2023-07-24T11:10:22;94271.56;;;20.53;100.00
73941;BME280;62294;48.554;10.202;2023-07-24T11:12:49;94300.38;;;20.41;100.00
73941;BME280;62294;48.554;10.202;2023-07-24T11:15:24;94326.41;;;20.20;100.00
73941;BME280;62294;48.554;10.202;2023-07-24T11:17:54;94370.53;;;20.07;100.00
73941;BME280;62294;48.554;10.202;2023-07-24T11:20:20;94406.66;;;19.63;100.00
73941;BME280;62294;48.554;10.202;2023-07-24T11:22:47;94379.34;;;19.30;100.00
73941;BME280;62294;48.554;10.202;2023-07-24T11:25:14;94305.28;;;19.02;100.00
73941;BME280;62294;48.554;10.202;2023-07-24T11:27:41;94234.13;;;18.86;100.00
73941;BME280;62294;48.554;10.202;2023-07-24T11:30:11;94175.09;;;18.24;100.00
73941;BME280;62294;48.554;10.202;2023-07-24T11:32:40;94045.63;;;18.00;100.00
73941;BME280;62294;48.554;10.202;2023-07-24T11:35:08;93924.84;;;17.78;100.00
73941;BME280;62294;48.554;10.202;2023-07-24T11:37:35;93767.44;;;17.77;100.00
73941;BME280;62294;48.554;10.202;2023-07-24T11:40:03;93596.31;;;17.69;100.00
73941;BME280;62294;48.554;10.202;2023-07-24T11:42:39;93495.53;;;17.63;100.00
73941;BME280;62294;48.554;10.202;2023-07-24T11:45:07;93395.47;;;17.66;100.00
73941;BME280;62294;48.554;10.202;2023-07-24T11:47:49;93257.53;;;17.70;100.00
73941;BME280;62294;48.554;10.202;2023-07-24T11:50:17;93164.41;;;17.75;100.00
73941;BME280;62294;48.554;10.202;2023-07-24T11:52:51;93100.50;;;17.68;100.00
73941;BME280;62294;48.554;10.202;2023-07-24T11:55:31;93012.63;;;17.68;100.00
73941;BME280;62294;48.554;10.202;2023-07-24T11:57:59;92933.63;;;17.69;100.00
73941;BME280;62294;48.554;10.202;2023-07-24T12:00:27;92864.31;;;17.87;100.00
73941;BME280;62294;48.554;10.202;2023-07-24T12:03:03;92799.63;;;18.08;100.00
73941;BME280;62294;48.554;10.202;2023-07-24T12:05:39;92725.41;;;18.34;100.00
73941;BME280;62294;48.554;10.202;2023-07-24T12:08:06;92720.16;;;18.54;100.00
73941;BME280;62294;48.554;10.202;2023-07-24T12:10:38;92714.41;;;18.86;100.00
73941;BME280;62294;48.554;10.202;2023-07-24T12:13:06;92747.91;;;18.89;100.00
73941;BME280;62294;48.554;10.202;2023-07-24T12:15:33;92759.00;;;19.38;100.00
73941;BME280;62294;48.554;10.202;2023-07-24T12:18:03;92807.38;;;19.34;100.00
73941;BME280;62294;48.554;10.202;2023-07-24T12:20:30;92848.94;;;19.68;100.00
73941;BME280;62294;48.554;10.202;2023-07-24T12:22:57;92935.78;;;19.46;100.00
73941;BME280;62294;48.554;10.202;2023-07-24T12:25:24;92985.50;;;19.48;100.00
73941;BME280;62294;48.554;10.202;2023-07-24T12:27:51;93035.53;;;19.49;100.00
73941;BME280;62294;48.554;10.202;2023-07-24T12:30:17;93055.53;;;19.79;100.00
73941;BME280;62294;48.554;10.202;2023-07-24T12:32:45;93100.84;;;20.05;100.00
73941;BME280;62294;48.554;10.202;2023-07-24T12:35:11;93188.69;;;19.78;100.00
73941;BME280;62294;48.554;10.202;2023-07-24T12:37:42;93236.53;;;19.81;100.00
73941;BME280;62294;48.554;10.202;2023-07-24T12:40:09;93318.19;;;19.82;100.00
73941;BME280;62294;48.554;10.202;2023-07-24T12:42:36;93326.41;;;20.01;100.00
73941;BME280;62294;48.554;10.202;2023-07-24T12:45:03;93375.59;;;19.58;100.00
73941;BME280;62294;48.554;10.202;2023-07-24T12:47:31;93352.81;;;19.56;100.00